Charlesbourg, Canada
Current Conditions -  °F | °C
As of 5:00 AM on Monday 20 Oct 2014 (Local Time) from CYQB Reporting Station
Overcast Overcast  
Wind Chill: 28°   Ceiling: 3700
Heat Index: 36°   Visibility: 15mi
Dew Point: 30°   Wind: 12mph
Humidity: 81%   Direction: 230°SW
Pressure: 29.88"   Gusts: NA
Location:  46.86°N, 71.27°W
Report Text: CYQB 200900Z 23010KT 15SM OVC037 02/M01 A2988 RMK SC8 SLP123
Loading
Personal Weather Stations






























Interactive Weather Map
Tropical Storm Tracking
New forecast layout! Learn more

10-Day Weather Forecast

Advertisements
Track Severe Weather on mobile